createdAt,value
2017-11-19T00:01:07.087Z,8.10
2017-11-19T00:03:35.940Z,8.60
2017-11-19T00:06:04.834Z,8.93
2017-11-19T00:08:33.683Z,7.90
2017-11-19T00:11:02.595Z,8.60
2017-11-19T00:13:31.467Z,8.77
2017-11-19T00:16:00.355Z,8.67
2017-11-19T00:18:29.262Z,8.67
2017-11-19T00:20:58.107Z,8.93
2017-11-19T00:23:26.979Z,9.13
2017-11-19T00:25:55.834Z,9.00
2017-11-19T00:28:24.754Z,9.70
2017-11-19T00:30:53.649Z,10.13
2017-11-19T00:33:22.529Z,9.93
2017-11-19T00:35:51.392Z,9.63
2017-11-19T00:38:20.271Z,9.27
2017-11-19T00:40:49.195Z,9.73
2017-11-19T00:43:18.069Z,10.10
2017-11-19T00:45:46.946Z,12.43
2017-11-19T00:48:15.832Z,10.80
2017-11-19T00:50:44.696Z,12.33
2017-11-19T00:53:13.554Z,10.30
2017-11-19T00:55:42.575Z,12.67
2017-11-19T00:58:11.428Z,10.40
2017-11-19T01:00:40.311Z,12.43
2017-11-19T01:03:09.866Z,12.20
2017-11-19T01:05:38.771Z,12.73
2017-11-19T01:08:07.629Z,12.37
2017-11-19T01:10:37.391Z,12.70
2017-11-19T01:13:06.260Z,12.47
2017-11-19T01:15:35.119Z,11.93
2017-11-19T01:18:03.989Z,12.07
2017-11-19T01:20:33.032Z,12.97
2017-11-19T01:23:01.893Z,13.37
2017-11-19T01:25:30.753Z,12.40
2017-11-19T01:27:59.704Z,13.50
2017-11-19T01:30:28.645Z,11.70
2017-11-19T01:32:57.513Z,14.23
2017-11-19T01:35:26.383Z,12.10
2017-11-19T01:37:55.251Z,12.10
2017-11-19T01:40:24.111Z,13.40
2017-11-19T01:42:52.986Z,12.83
2017-11-19T01:45:21.873Z,13.67
2017-11-19T01:47:50.730Z,13.20
2017-11-19T01:50:19.639Z,15.07
2017-11-19T01:52:48.521Z,13.53
2017-11-19T01:55:17.380Z,13.10
2017-11-19T01:57:46.258Z,15.80
2017-11-19T02:00:15.153Z,13.30
2017-11-19T02:02:44.040Z,14.50
2017-11-19T02:05:12.919Z,14.63
2017-11-19T02:07:41.893Z,14.80
2017-11-19T02:10:10.758Z,15.20
2017-11-19T02:12:39.628Z,15.43
2017-11-19T02:15:08.555Z,14.50
2017-11-19T02:17:37.420Z,15.60
2017-11-19T02:20:06.440Z,15.50
2017-11-19T02:22:35.329Z,15.17
2017-11-19T02:25:04.279Z,15.33
2017-11-19T02:27:33.168Z,16.03
2017-11-19T02:30:02.049Z,15.97
2017-11-19T02:32:30.941Z,14.30
2017-11-19T02:34:59.798Z,15.43
2017-11-19T02:37:28.699Z,14.80
2017-11-19T02:39:57.579Z,15.90
2017-11-19T02:42:26.428Z,14.23
2017-11-19T02:44:55.317Z,14.20
2017-11-19T02:47:24.183Z,14.20
2017-11-19T02:49:53.111Z,15.17
2017-11-19T02:52:21.977Z,13.40
2017-11-19T02:54:50.828Z,13.27
2017-11-19T02:57:19.699Z,11.93
2017-11-19T02:59:48.579Z,12.60
2017-11-19T03:02:17.463Z,11.97
2017-11-19T03:04:46.326Z,11.20
2017-11-19T03:07:15.200Z,10.00
2017-11-19T03:09:44.058Z,11.00
2017-11-19T03:12:13.080Z,11.53
2017-11-19T03:14:42.035Z,10.00
2017-11-19T03:17:10.920Z,9.27
2017-11-19T03:19:39.795Z,9.40
2017-11-19T03:22:08.658Z,9.30
2017-11-19T03:24:37.554Z,9.03
2017-11-19T03:27:06.419Z,8.43
2017-11-19T03:29:35.263Z,8.77
2017-11-19T03:32:04.241Z,8.20
2017-11-19T03:34:33.140Z,7.30
2017-11-19T03:37:02.132Z,7.20
2017-11-19T03:39:30.984Z,6.20
2017-11-19T03:41:59.875Z,7.13
2017-11-19T03:44:28.731Z,7.10
2017-11-19T03:46:57.589Z,7.03
2017-11-19T03:49:26.471Z,6.03
2017-11-19T03:51:55.339Z,6.10
2017-11-19T03:54:24.211Z,5.87
2017-11-19T03:56:53.080Z,5.17
2017-11-19T03:59:22.009Z,4.60
2017-11-19T04:01:50.869Z,5.50
2017-11-19T04:04:19.773Z,4.23
2017-11-19T04:06:48.647Z,4.27
2017-11-19T04:09:17.499Z,3.80
2017-11-19T04:11:46.376Z,3.77
2017-11-19T04:14:15.287Z,3.13
2017-11-19T04:16:44.157Z,3.80
2017-11-19T04:19:13.009Z,3.47
2017-11-19T04:21:41.873Z,3.33
2017-11-19T04:24:10.726Z,3.63
2017-11-19T04:26:39.619Z,3.30
2017-11-19T04:29:08.476Z,2.70
2017-11-19T04:31:37.358Z,3.00
2017-11-19T04:34:06.212Z,2.97
2017-11-19T04:36:35.142Z,2.80
2017-11-19T04:39:04.032Z,2.50
2017-11-19T04:41:32.880Z,2.50
2017-11-19T04:44:01.778Z,3.00
2017-11-19T04:46:30.656Z,2.47
2017-11-19T04:48:59.585Z,2.80
2017-11-19T04:51:28.454Z,3.00
2017-11-19T04:53:57.300Z,2.87
2017-11-19T04:56:26.196Z,3.03
2017-11-19T04:58:55.047Z,2.77
2017-11-19T05:01:23.913Z,2.80
2017-11-19T05:03:52.808Z,2.63
2017-11-19T05:06:21.668Z,2.27
2017-11-19T05:08:50.709Z,2.60
2017-11-19T05:11:19.577Z,2.80
2017-11-19T05:13:48.441Z,2.87
2017-11-19T05:16:17.349Z,3.07
2017-11-19T05:18:46.216Z,3.03
2017-11-19T05:21:15.107Z,3.20
2017-11-19T05:23:43.968Z,2.90
2017-11-19T05:26:12.871Z,2.90
2017-11-19T05:28:41.737Z,2.73
2017-11-19T05:31:10.611Z,2.60
2017-11-19T05:33:39.481Z,2.30
2017-11-19T05:36:08.386Z,2.30
2017-11-19T05:38:37.246Z,2.20
2017-11-19T05:41:06.110Z,2.20
2017-11-19T05:43:34.999Z,2.93
2017-11-19T05:46:03.861Z,3.00
2017-11-19T05:48:32.748Z,2.40
2017-11-19T05:51:01.598Z,2.77
2017-11-19T05:53:30.535Z,2.60
2017-11-19T05:55:59.402Z,2.03
2017-11-19T05:58:28.267Z,2.43
2017-11-19T06:00:57.176Z,2.63
2017-11-19T06:03:26.036Z,2.30
2017-11-19T06:05:54.903Z,2.80
2017-11-19T06:08:23.771Z,2.13
2017-11-19T06:10:52.624Z,2.60
2017-11-19T06:13:21.496Z,2.30
2017-11-19T06:15:50.371Z,2.90
2017-11-19T06:18:19.415Z,2.40
2017-11-19T06:20:48.295Z,2.60
2017-11-19T06:23:17.182Z,2.23
2017-11-19T06:25:46.168Z,2.73
2017-11-19T06:28:15.043Z,2.33
2017-11-19T06:30:43.935Z,2.30
2017-11-19T06:33:12.980Z,2.77
2017-11-19T06:35:41.849Z,2.30
2017-11-19T06:38:10.744Z,2.23
2017-11-19T06:40:39.620Z,2.17
2017-11-19T06:43:08.493Z,2.07
2017-11-19T06:45:37.343Z,2.20
2017-11-19T06:48:06.212Z,2.20
2017-11-19T06:50:35.080Z,1.80
2017-11-19T06:53:03.953Z,2.00
2017-11-19T06:55:32.810Z,2.57
2017-11-19T06:58:01.704Z,2.00
2017-11-19T07:00:30.574Z,2.40
2017-11-19T07:02:59.427Z,2.23
2017-11-19T07:05:28.303Z,2.20
2017-11-19T07:07:57.173Z,2.03
2017-11-19T07:10:26.022Z,2.00
2017-11-19T07:12:54.895Z,1.77
2017-11-19T07:15:23.750Z,2.50
2017-11-19T07:17:52.612Z,2.30
2017-11-19T07:20:21.456Z,2.17
2017-11-19T07:22:50.336Z,1.77
2017-11-19T07:25:19.215Z,2.30
2017-11-19T07:27:48.081Z,2.00
2017-11-19T07:30:16.928Z,2.20
2017-11-19T07:32:45.828Z,2.33
2017-11-19T07:35:14.697Z,1.80
2017-11-19T07:37:43.591Z,1.60
2017-11-19T07:40:12.462Z,1.30
2017-11-19T07:42:41.330Z,1.90
2017-11-19T07:45:10.215Z,1.63
2017-11-19T07:47:39.056Z,1.60
2017-11-19T07:50:07.923Z,1.60
2017-11-19T07:52:36.784Z,1.50
2017-11-19T07:55:05.657Z,1.47
2017-11-19T07:57:34.540Z,1.33
2017-11-19T08:00:03.404Z,1.60
2017-11-19T08:02:32.280Z,1.70
2017-11-19T08:05:01.135Z,1.50
2017-11-19T08:07:30.068Z,1.50
2017-11-19T08:09:58.955Z,1.63
2017-11-19T08:12:27.824Z,2.03
2017-11-19T08:14:56.674Z,1.37
2017-11-19T08:17:25.585Z,1.70
2017-11-19T08:19:54.449Z,1.70
2017-11-19T08:22:23.330Z,1.67
2017-11-19T08:24:52.225Z,1.80
2017-11-19T08:27:21.080Z,1.87
2017-11-19T08:29:49.971Z,1.70
2017-11-19T08:32:18.808Z,3.00
2017-11-19T08:34:47.687Z,1.80
2017-11-19T08:37:16.544Z,2.43
2017-11-19T08:39:45.497Z,2.97
2017-11-19T08:42:14.349Z,2.40
2017-11-19T08:44:43.213Z,2.20
2017-11-19T08:47:12.095Z,2.80
2017-11-19T08:49:40.990Z,3.00
2017-11-19T08:52:09.839Z,2.60
2017-11-19T08:54:38.696Z,2.37
2017-11-19T08:57:07.552Z,3.30
2017-11-19T08:59:36.441Z,3.33
2017-11-19T09:02:05.307Z,3.10
2017-11-19T09:04:34.171Z,4.00
2017-11-19T09:07:03.077Z,3.97
2017-11-19T09:09:31.952Z,3.83
2017-11-19T09:12:00.799Z,3.33
2017-11-19T09:14:29.664Z,3.47
2017-11-19T09:16:58.520Z,6.40
2017-11-19T09:19:27.403Z,5.10
2017-11-19T09:21:56.289Z,3.40
2017-11-19T09:24:25.156Z,3.77
2017-11-19T09:26:54.047Z,3.00
2017-11-19T09:29:22.920Z,2.80
2017-11-19T09:31:51.770Z,3.50
2017-11-19T09:34:20.660Z,3.10
2017-11-19T09:36:49.505Z,3.40
2017-11-19T09:39:18.360Z,3.50
2017-11-19T09:41:47.239Z,3.87
2017-11-19T09:44:16.115Z,3.07
2017-11-19T09:46:45.009Z,3.07
2017-11-19T09:49:13.875Z,3.47
2017-11-19T09:51:42.735Z,3.70
2017-11-19T09:54:11.634Z,4.03
2017-11-19T09:56:40.492Z,3.83
2017-11-19T09:59:09.351Z,3.20
2017-11-19T10:01:38.257Z,3.57
2017-11-19T10:04:07.153Z,3.57
2017-11-19T10:06:36.111Z,6.10
2017-11-19T10:09:05.028Z,5.37
2017-11-19T10:11:33.883Z,4.37
2017-11-19T10:14:02.781Z,4.20
2017-11-19T10:16:31.656Z,3.40
2017-11-19T10:19:00.536Z,3.53
2017-11-19T10:21:29.436Z,3.40
2017-11-19T10:23:58.284Z,3.87
2017-11-19T10:26:27.143Z,3.63
2017-11-19T10:28:56.037Z,3.60
2017-11-19T10:31:24.900Z,4.43
2017-11-19T10:33:53.770Z,3.90
2017-11-19T10:36:22.619Z,3.63
2017-11-19T10:38:51.536Z,3.73
2017-11-19T10:41:20.435Z,3.93
2017-11-19T10:43:49.297Z,4.10
2017-11-19T10:46:18.213Z,3.23
2017-11-19T10:48:47.092Z,3.70
2017-11-19T10:51:15.968Z,3.30
2017-11-19T10:53:44.982Z,3.30
2017-11-19T10:56:13.869Z,2.30
2017-11-19T10:58:42.721Z,3.10
2017-11-19T11:01:11.595Z,2.83
2017-11-19T11:03:40.455Z,3.67
2017-11-19T11:06:09.326Z,5.37
2017-11-19T11:08:38.201Z,2.80
2017-11-19T11:11:07.100Z,3.27
2017-11-19T11:13:35.995Z,3.70
2017-11-19T11:16:04.866Z,3.10
2017-11-19T11:18:33.743Z,2.57
2017-11-19T11:21:02.608Z,2.50
2017-11-19T11:23:31.532Z,3.00
2017-11-19T11:26:00.446Z,2.70
2017-11-19T11:28:29.334Z,3.20
2017-11-19T11:30:58.179Z,3.10
2017-11-19T11:33:27.032Z,2.87
2017-11-19T11:35:56.028Z,2.60
2017-11-19T11:38:24.973Z,3.07
2017-11-19T11:40:53.853Z,3.30
2017-11-19T11:43:22.882Z,2.50
2017-11-19T11:45:51.829Z,3.07
2017-11-19T11:48:20.701Z,2.90
2017-11-19T11:50:49.610Z,2.23
2017-11-19T11:53:18.514Z,1.90
2017-11-19T11:55:47.407Z,2.50
2017-11-19T11:58:16.271Z,1.97
2017-11-19T12:00:45.153Z,1.90
2017-11-19T12:03:14.040Z,1.70
2017-11-19T12:05:42.915Z,2.00
2017-11-19T12:08:11.775Z,2.20
2017-11-19T12:10:41.454Z,2.00
2017-11-19T12:13:10.297Z,2.23
2017-11-19T12:15:39.178Z,1.80
2017-11-19T12:18:08.098Z,1.80
2017-11-19T12:20:36.968Z,2.47
2017-11-19T12:23:05.836Z,2.00
2017-11-19T12:25:34.709Z,2.20
2017-11-19T12:28:03.714Z,2.93
2017-11-19T12:30:32.744Z,3.70
2017-11-19T12:33:02.086Z,2.93
2017-11-19T12:35:31.030Z,4.40
2017-11-19T12:37:59.937Z,3.37
2017-11-19T12:40:28.805Z,2.33
2017-11-19T12:42:57.749Z,2.70
2017-11-19T12:45:26.600Z,2.80
2017-11-19T12:47:55.473Z,2.30
2017-11-19T12:50:24.320Z,2.67
2017-11-19T12:52:53.235Z,2.60
2017-11-19T12:55:22.175Z,2.47
2017-11-19T12:57:51.177Z,2.50
2017-11-19T13:00:20.063Z,2.47
2017-11-19T13:02:48.923Z,2.33
2017-11-19T13:05:17.801Z,2.67
2017-11-19T13:07:46.676Z,2.53
2017-11-19T13:10:15.537Z,2.40
2017-11-19T13:12:44.464Z,2.20
2017-11-19T13:15:13.358Z,2.40
2017-11-19T13:17:42.207Z,2.77
2017-11-19T13:20:11.103Z,2.77
2017-11-19T13:22:39.960Z,2.40
2017-11-19T13:25:08.833Z,2.90
2017-11-19T13:27:37.678Z,2.40
2017-11-19T13:30:06.550Z,3.50
2017-11-19T13:32:35.399Z,3.00
2017-11-19T13:35:04.283Z,3.20
2017-11-19T13:37:33.225Z,3.67
2017-11-19T13:40:02.179Z,8.20
2017-11-19T13:42:31.058Z,2.80
2017-11-19T13:45:00.589Z,2.60
2017-11-19T13:47:29.566Z,3.20
2017-11-19T13:49:59.339Z,2.87
2017-11-19T13:52:28.214Z,2.70
2017-11-19T13:54:57.263Z,3.13
2017-11-19T13:57:26.116Z,2.90
2017-11-19T13:59:55.001Z,3.30
2017-11-19T14:02:23.883Z,3.23
2017-11-19T14:04:52.765Z,2.80
2017-11-19T14:07:22.111Z,3.10
2017-11-19T14:09:50.968Z,2.80
2017-11-19T14:12:19.892Z,3.30
2017-11-19T14:14:48.740Z,3.53
2017-11-19T14:17:17.617Z,3.13
2017-11-19T14:19:46.491Z,2.97
2017-11-19T14:22:15.568Z,3.00
2017-11-19T14:24:45.176Z,3.40
2017-11-19T14:27:14.019Z,2.70
2017-11-19T14:29:42.946Z,2.60
2017-11-19T14:32:11.832Z,3.10
2017-11-19T14:34:40.739Z,3.07
2017-11-19T14:37:09.583Z,3.37
2017-11-19T14:39:39.195Z,3.33
2017-11-19T14:42:08.053Z,3.83
2017-11-19T14:44:36.920Z,2.97
2017-11-19T14:47:05.768Z,2.93
2017-11-19T14:49:34.692Z,3.17
2017-11-19T14:52:03.616Z,2.60
2017-11-19T14:54:32.491Z,3.03
2017-11-19T14:57:01.361Z,3.30
2017-11-19T14:59:30.206Z,2.93
2017-11-19T15:01:59.079Z,3.10
2017-11-19T15:04:27.941Z,2.93
2017-11-19T15:06:56.819Z,3.13
2017-11-19T15:09:25.711Z,3.03
2017-11-19T15:11:54.630Z,3.60
2017-11-19T15:14:24.159Z,3.20
2017-11-19T15:16:53.040Z,3.20
2017-11-19T15:19:21.920Z,3.73
2017-11-19T15:21:50.803Z,2.93
2017-11-19T15:24:19.750Z,3.07
2017-11-19T15:26:48.624Z,1.83
2017-11-19T15:29:17.511Z,2.70
2017-11-19T15:31:46.389Z,2.50
2017-11-19T15:34:15.254Z,2.90
2017-11-19T15:36:44.122Z,2.87
2017-11-19T15:39:13.063Z,2.40
2017-11-19T15:41:42.145Z,3.33
2017-11-19T15:44:10.992Z,3.00
2017-11-19T15:46:39.958Z,3.17
2017-11-19T15:49:08.895Z,3.13
2017-11-19T15:51:37.807Z,4.50
2017-11-19T15:54:06.669Z,2.80
2017-11-19T15:56:35.586Z,3.00
2017-11-19T15:59:04.613Z,2.73
2017-11-19T16:01:33.498Z,3.30
2017-11-19T16:04:02.384Z,3.07
2017-11-19T16:06:31.241Z,2.67
2017-11-19T16:09:00.174Z,2.70
2017-11-19T16:11:29.116Z,2.60
2017-11-19T16:13:58.005Z,3.47
2017-11-19T16:16:26.901Z,3.30
2017-11-19T16:18:55.766Z,3.20
2017-11-19T16:21:24.686Z,2.73
2017-11-19T16:23:53.835Z,3.37
2017-11-19T16:26:22.752Z,3.97
2017-11-19T16:28:51.679Z,3.77
2017-11-19T16:31:20.540Z,3.37
2017-11-19T16:33:49.412Z,3.17
2017-11-19T16:36:18.274Z,3.17
2017-11-19T16:38:47.135Z,3.50
2017-11-19T16:41:16.005Z,3.57
2017-11-19T16:43:44.901Z,3.10
2017-11-19T16:46:13.760Z,3.70
2017-11-19T16:48:42.664Z,3.33
2017-11-19T16:51:11.551Z,3.60
2017-11-19T16:53:40.416Z,4.20
2017-11-19T16:56:09.308Z,3.90
2017-11-19T16:58:38.159Z,3.70
2017-11-19T17:01:07.041Z,3.47
2017-11-19T17:03:35.892Z,3.97
2017-11-19T17:06:04.752Z,5.33
2017-11-19T17:08:33.650Z,3.80
2017-11-19T17:11:02.535Z,4.30
2017-11-19T17:13:31.402Z,4.30
2017-11-19T17:16:00.527Z,4.20
2017-11-19T17:18:29.608Z,4.30
2017-11-19T17:20:58.720Z,3.80
2017-11-19T17:23:27.636Z,3.90
2017-11-19T17:25:56.569Z,4.57
2017-11-19T17:28:25.467Z,3.67
2017-11-19T17:30:54.365Z,4.20
2017-11-19T17:33:23.443Z,4.70
2017-11-19T17:35:58.028Z,3.43
2017-11-19T17:38:26.929Z,4.30
2017-11-19T17:40:55.918Z,4.53
2017-11-19T17:43:24.922Z,3.97
2017-11-19T17:45:54.096Z,3.70
2017-11-19T17:48:23.016Z,3.50
2017-11-19T17:50:51.916Z,4.33
2017-11-19T17:53:20.775Z,3.13
2017-11-19T17:55:49.799Z,3.83
2017-11-19T17:58:18.699Z,5.63
2017-11-19T18:00:47.950Z,4.07
2017-11-19T18:03:16.952Z,3.70
2017-11-19T18:05:46.080Z,4.13
2017-11-19T18:08:15.020Z,3.80
2017-11-19T18:10:43.925Z,3.50
2017-11-19T18:13:13.577Z,3.90
2017-11-19T18:15:42.529Z,4.20
2017-11-19T18:18:11.501Z,3.37
2017-11-19T18:20:40.473Z,3.80
2017-11-19T18:23:09.353Z,3.40
2017-11-19T18:25:38.344Z,3.50
2017-11-19T18:28:07.187Z,4.70
2017-11-19T18:30:36.148Z,3.40
2017-11-19T18:33:05.126Z,3.60
2017-11-19T18:35:34.002Z,3.50
2017-11-19T18:38:02.876Z,2.77
2017-11-19T18:40:31.773Z,3.10
2017-11-19T18:43:00.637Z,3.47
2017-11-19T18:45:29.592Z,3.27
2017-11-19T18:48:01.021Z,2.70
2017-11-19T18:50:30.171Z,2.53
2017-11-19T18:52:59.355Z,2.83
2017-11-19T18:55:28.764Z,3.10
2017-11-19T18:57:57.661Z,3.40
2017-11-19T19:00:26.539Z,4.50
2017-11-19T19:02:55.920Z,3.40
2017-11-19T19:05:24.771Z,2.40
2017-11-19T19:07:53.635Z,2.67
2017-11-19T19:10:22.502Z,2.77
2017-11-19T19:12:51.390Z,3.50
2017-11-19T19:15:20.285Z,3.97
2017-11-19T19:17:49.142Z,3.00
2017-11-19T19:20:18.019Z,3.00
2017-11-19T19:22:46.891Z,3.07
2017-11-19T19:25:15.785Z,2.83
2017-11-19T19:27:44.630Z,3.00
2017-11-19T19:30:13.493Z,3.00
2017-11-19T19:32:42.351Z,3.00
2017-11-19T19:35:11.312Z,2.90
2017-11-19T19:37:40.260Z,3.67
2017-11-19T19:40:09.110Z,3.40
2017-11-19T19:42:37.988Z,2.67
2017-11-19T19:45:06.849Z,2.50
2017-11-19T19:47:35.719Z,3.27
2017-11-19T19:50:04.600Z,3.57
2017-11-19T19:52:33.469Z,2.83
2017-11-19T19:55:02.383Z,3.17
2017-11-19T19:57:31.265Z,3.20
2017-11-19T20:00:00.141Z,3.70
2017-11-19T20:02:29.044Z,3.80
2017-11-19T20:04:58.001Z,2.70
2017-11-19T20:07:27.008Z,2.70
2017-11-19T20:09:55.861Z,3.10
2017-11-19T20:12:24.702Z,3.30
2017-11-19T20:14:53.609Z,2.20
2017-11-19T20:17:22.469Z,2.40
2017-11-19T20:19:51.383Z,2.70
2017-11-19T20:22:20.276Z,3.27
2017-11-19T20:24:49.145Z,2.33
2017-11-19T20:27:18.006Z,2.63
2017-11-19T20:29:46.881Z,2.43
2017-11-19T20:32:15.769Z,2.97
2017-11-19T20:34:44.639Z,2.87
2017-11-19T20:37:13.507Z,2.93
2017-11-19T20:39:42.396Z,2.80
2017-11-19T20:42:11.280Z,2.90
2017-11-19T20:44:40.152Z,2.63
2017-11-19T20:47:09.043Z,3.10
2017-11-19T20:49:37.906Z,3.00
2017-11-19T20:52:06.829Z,2.37
2017-11-19T20:54:35.714Z,3.37
2017-11-19T20:57:04.614Z,3.53
2017-11-19T20:59:33.488Z,2.60
2017-11-19T21:02:02.388Z,2.60
2017-11-19T21:04:31.265Z,2.93
2017-11-19T21:07:00.111Z,2.83
2017-11-19T21:09:29.004Z,2.60
2017-11-19T21:11:57.876Z,2.90
2017-11-19T21:14:26.747Z,2.43
2017-11-19T21:16:55.615Z,3.13
2017-11-19T21:19:24.480Z,2.70
2017-11-19T21:21:53.327Z,4.00
2017-11-19T21:24:22.258Z,2.90
2017-11-19T21:26:51.182Z,2.40
2017-11-19T21:29:20.075Z,2.80
2017-11-19T21:31:48.934Z,4.10
2017-11-19T21:34:17.792Z,3.10
2017-11-19T21:36:46.656Z,2.77
2017-11-19T21:39:15.557Z,2.90
2017-11-19T21:41:44.453Z,2.60
2017-11-19T21:44:13.313Z,2.97
2017-11-19T21:46:42.225Z,3.80
2017-11-19T21:49:11.099Z,2.87
2017-11-19T21:51:40.005Z,2.70
2017-11-19T21:54:08.872Z,2.50
2017-11-19T21:56:37.742Z,2.63
2017-11-19T21:59:06.614Z,2.60
2017-11-19T22:01:35.490Z,2.87
2017-11-19T22:04:04.359Z,2.93
2017-11-19T22:06:33.204Z,2.80
2017-11-19T22:09:02.085Z,3.07
2017-11-19T22:11:30.952Z,2.90
2017-11-19T22:13:59.832Z,2.67
2017-11-19T22:16:28.707Z,3.47
2017-11-19T22:18:57.614Z,3.23
2017-11-19T22:21:26.461Z,2.70
2017-11-19T22:23:55.331Z,2.90
2017-11-19T22:26:24.215Z,3.10
2017-11-19T22:28:53.093Z,3.10
2017-11-19T22:31:21.970Z,3.53
2017-11-19T22:33:50.835Z,2.80
2017-11-19T22:36:19.722Z,3.60
2017-11-19T22:38:48.595Z,2.83
2017-11-19T22:41:17.452Z,2.80
2017-11-19T22:43:46.289Z,2.80
2017-11-19T22:46:15.147Z,3.20
2017-11-19T22:48:43.999Z,3.07
2017-11-19T22:51:12.876Z,3.30
2017-11-19T22:53:41.755Z,3.10
2017-11-19T22:56:10.652Z,3.70
2017-11-19T22:58:39.506Z,2.90
2017-11-19T23:01:08.387Z,3.53
2017-11-19T23:03:37.241Z,2.90
2017-11-19T23:06:06.155Z,2.93
2017-11-19T23:08:35.044Z,3.00
2017-11-19T23:11:03.895Z,3.10
2017-11-19T23:13:32.763Z,2.50
2017-11-19T23:16:01.618Z,3.50
2017-11-19T23:18:30.479Z,3.00
2017-11-19T23:20:59.363Z,3.50
2017-11-19T23:23:28.275Z,2.50
2017-11-19T23:25:57.161Z,3.50
2017-11-19T23:28:26.085Z,2.80
2017-11-19T23:30:54.969Z,3.30
2017-11-19T23:33:23.821Z,3.80
2017-11-19T23:35:52.706Z,3.80
2017-11-19T23:38:21.577Z,3.83
2017-11-19T23:40:50.453Z,3.90
2017-11-19T23:43:19.300Z,3.80
2017-11-19T23:45:48.181Z,3.80
2017-11-19T23:48:17.028Z,3.70
2017-11-19T23:50:45.900Z,4.80
2017-11-19T23:53:14.751Z,4.70
2017-11-19T23:55:43.650Z,4.20
2017-11-19T23:58:12.507Z,4.70
